createdAt,value
2023-04-28T00:02:21.577Z,99146.22
2023-04-28T00:04:49.345Z,99147.16
2023-04-28T00:07:16.933Z,99143.41
2023-04-28T00:09:44.400Z,99147.66
2023-04-28T00:12:12.261Z,99148.06
2023-04-28T00:14:40.627Z,99152.88
2023-04-28T00:17:10.150Z,99154.16
2023-04-28T00:19:38.825Z,99159.31
2023-04-28T00:22:07.624Z,99154.06
2023-04-28T00:24:36.594Z,99159.44
2023-04-28T00:27:04.279Z,99160.53
2023-04-28T00:29:31.764Z,99164.16
2023-04-28T00:31:59.363Z,99166.75
2023-04-28T00:34:26.950Z,99163.34
2023-04-28T00:36:54.624Z,99165.00
2023-04-28T00:39:23.576Z,99165.94
2023-04-28T00:41:51.530Z,99176.91
2023-04-28T00:44:19.747Z,99174.69
2023-04-28T00:46:48.036Z,99174.09
2023-04-28T00:49:19.037Z,99172.44
2023-04-28T00:51:46.594Z,99176.22
2023-04-28T00:54:15.226Z,99176.34
2023-04-28T00:56:44.772Z,99174.94
2023-04-28T00:59:12.356Z,99172.34
2023-04-28T01:01:40.385Z,99162.28
2023-04-28T01:04:08.298Z,99167.00
2023-04-28T01:06:38.618Z,99167.22
2023-04-28T01:09:07.618Z,99174.50
2023-04-28T01:11:37.594Z,99172.41
2023-04-28T01:14:10.752Z,99167.50
2023-04-28T01:16:41.638Z,99164.44
2023-04-28T01:19:20.317Z,99173.13
2023-04-28T01:21:48.144Z,99166.31
2023-04-28T01:24:21.329Z,99173.81
2023-04-28T01:26:48.874Z,99168.66
2023-04-28T01:29:16.499Z,99173.13
2023-04-28T01:31:44.290Z,99168.66
2023-04-28T01:34:11.836Z,99170.31
2023-04-28T01:36:39.474Z,99189.19
2023-04-28T01:39:07.149Z,99183.22
2023-04-28T01:41:34.839Z,99175.81
2023-04-28T01:44:02.440Z,99181.13
2023-04-28T01:46:29.962Z,99187.22
2023-04-28T01:48:59.093Z,99184.78
2023-04-28T01:51:27.275Z,99184.16
2023-04-28T01:53:55.144Z,99177.59
2023-04-28T01:56:22.837Z,99184.63
2023-04-28T01:58:52.092Z,99189.31
2023-04-28T02:01:19.603Z,99185.59
2023-04-28T02:03:48.412Z,99189.94
2023-04-28T02:06:16.080Z,99194.63
2023-04-28T02:08:43.807Z,99196.41
2023-04-28T02:11:13.399Z,99197.91
2023-04-28T02:13:41.736Z,99202.47
2023-04-28T02:16:09.288Z,99196.97
2023-04-28T02:18:36.819Z,99202.72
2023-04-28T02:21:14.057Z,99202.47
2023-04-28T02:23:41.655Z,99213.06
2023-04-28T02:26:09.251Z,99208.00
2023-04-28T02:28:37.006Z,99200.63
2023-04-28T02:31:09.415Z,99207.75
2023-04-28T02:33:38.288Z,99208.81
2023-04-28T02:36:06.894Z,99208.44
2023-04-28T02:38:35.019Z,99210.34
2023-04-28T02:41:05.420Z,99223.38
2023-04-28T02:43:33.479Z,99217.00
2023-04-28T02:46:02.975Z,99219.72
2023-04-28T02:48:31.061Z,99218.53
2023-04-28T02:50:58.720Z,99211.97
2023-04-28T02:53:26.787Z,99213.97
2023-04-28T02:55:54.691Z,99221.91
2023-04-28T02:58:22.272Z,99220.97
2023-04-28T03:00:49.944Z,99224.28
2023-04-28T03:03:18.469Z,99215.34
2023-04-28T03:05:46.989Z,99212.19
2023-04-28T03:08:14.664Z,99214.63
2023-04-28T03:10:43.652Z,99220.50
2023-04-28T03:13:12.644Z,99217.34
2023-04-28T03:15:40.745Z,99217.44
2023-04-28T03:18:08.580Z,99224.69
2023-04-28T03:20:36.605Z,99221.19
2023-04-28T03:23:04.474Z,99227.63
2023-04-28T03:25:32.153Z,99232.88
2023-04-28T03:27:59.570Z,99233.13
2023-04-28T03:30:28.902Z,99233.94
2023-04-28T03:32:58.102Z,99237.47
2023-04-28T03:35:25.636Z,99246.16
2023-04-28T03:37:53.251Z,99240.59
2023-04-28T03:40:20.797Z,99244.81
2023-04-28T03:43:17.263Z,99240.50
2023-04-28T03:46:05.174Z,99242.28
2023-04-28T03:48:32.814Z,99254.50
2023-04-28T03:51:00.575Z,99255.47
2023-04-28T03:53:28.520Z,99250.78
2023-04-28T03:55:56.417Z,99252.09
2023-04-28T03:58:25.077Z,99263.38
2023-04-28T04:00:52.657Z,99250.34
2023-04-28T04:03:23.103Z,99255.75
2023-04-28T04:05:51.009Z,99260.22
2023-04-28T04:08:18.660Z,99254.03
2023-04-28T04:10:46.383Z,99257.06
2023-04-28T04:13:14.513Z,99255.78
2023-04-28T04:15:44.475Z,99248.50
2023-04-28T04:18:12.482Z,99258.34
2023-04-28T04:21:00.303Z,99262.09
2023-04-28T04:23:28.506Z,99255.72
2023-04-28T04:25:56.347Z,99251.00
2023-04-28T04:28:23.867Z,99254.50
2023-04-28T04:30:51.466Z,99240.09
2023-04-28T04:33:19.095Z,99229.00
2023-04-28T04:35:46.772Z,99230.28
2023-04-28T04:38:14.302Z,99224.00
2023-04-28T04:40:41.987Z,99228.34
2023-04-28T04:43:10.720Z,99237.16
2023-04-28T04:45:44.758Z,99228.41
2023-04-28T04:48:13.864Z,99241.56
2023-04-28T04:50:42.659Z,99246.66
2023-04-28T04:53:13.320Z,99231.13
2023-04-28T04:55:44.283Z,99216.47
2023-04-28T04:58:11.933Z,99228.09
2023-04-28T05:01:02.453Z,99233.47
2023-04-28T05:03:30.156Z,99232.31
2023-04-28T05:05:57.826Z,99239.97
2023-04-28T05:08:34.789Z,99227.84
2023-04-28T05:11:03.124Z,99232.78
2023-04-28T05:13:30.902Z,99227.78
2023-04-28T05:16:02.463Z,99222.22
2023-04-28T05:18:39.479Z,99219.47
2023-04-28T05:21:07.228Z,99216.75
2023-04-28T05:23:34.798Z,99226.22
2023-04-28T05:26:03.817Z,99233.50
2023-04-28T05:28:31.742Z,99218.94
2023-04-28T05:31:02.333Z,99221.84
2023-04-28T05:33:30.977Z,99216.28
2023-04-28T05:35:59.650Z,99217.19
2023-04-28T05:38:27.338Z,99211.16
2023-04-28T05:40:56.401Z,99203.00
2023-04-28T05:43:23.977Z,99196.69
2023-04-28T05:45:51.626Z,99189.16
2023-04-28T05:48:19.644Z,99212.28
2023-04-28T05:50:47.055Z,99224.72
2023-04-28T05:53:14.597Z,99224.88
2023-04-28T05:55:42.360Z,99213.66
2023-04-28T05:58:10.568Z,99209.94
2023-04-28T06:00:38.605Z,99222.34
2023-04-28T06:03:07.063Z,99211.16
2023-04-28T06:05:35.221Z,99210.63
2023-04-28T06:08:03.620Z,99215.75
2023-04-28T06:10:32.272Z,99215.50
2023-04-28T06:12:59.846Z,99220.16
2023-04-28T06:15:27.450Z,99218.16
2023-04-28T06:17:55.236Z,99209.28
2023-04-28T06:20:22.980Z,99225.47
2023-04-28T06:22:50.578Z,99210.47
2023-04-28T06:25:18.810Z,99227.63
2023-04-28T06:27:46.754Z,99222.50
2023-04-28T06:30:23.261Z,99227.16
2023-04-28T06:32:51.746Z,99223.84
2023-04-28T06:35:19.413Z,99221.69
2023-04-28T06:37:46.937Z,99218.25
2023-04-28T06:40:15.992Z,99220.84
2023-04-28T06:42:49.353Z,99216.53
2023-04-28T06:45:24.802Z,99210.81
2023-04-28T06:47:55.831Z,99207.47
2023-04-28T06:50:24.802Z,99199.53
2023-04-28T06:52:52.461Z,99199.13
2023-04-28T06:55:20.086Z,99193.94
2023-04-28T06:57:47.730Z,99200.28
2023-04-28T07:00:16.201Z,99212.84
2023-04-28T07:02:45.091Z,99229.53
2023-04-28T07:05:14.799Z,99212.59
2023-04-28T07:07:43.700Z,99225.16
2023-04-28T07:10:11.633Z,99216.88
2023-04-28T07:12:39.150Z,99211.72
2023-04-28T07:15:10.009Z,99210.97
2023-04-28T07:17:38.820Z,99206.78
2023-04-28T07:20:07.375Z,99209.69
2023-04-28T07:22:34.985Z,99204.50
2023-04-28T07:25:02.690Z,99212.28
2023-04-28T07:27:30.347Z,99198.22
2023-04-28T07:29:58.278Z,99200.34
2023-04-28T07:32:25.793Z,99232.47
2023-04-28T07:34:53.324Z,99222.16
2023-04-28T07:37:20.926Z,99207.97
2023-04-28T07:39:48.445Z,99195.00
2023-04-28T07:42:16.017Z,99196.47
2023-04-28T07:44:43.558Z,99192.72
2023-04-28T07:47:11.233Z,99207.81
2023-04-28T07:49:38.813Z,99204.91
2023-04-28T07:52:06.371Z,99194.22
2023-04-28T07:54:36.380Z,99171.13
2023-04-28T07:57:06.209Z,99194.06
2023-04-28T07:59:34.666Z,99197.34
2023-04-28T08:02:02.338Z,99187.66
2023-04-28T08:04:32.294Z,99187.13
2023-04-28T08:07:01.141Z,99184.91
2023-04-28T08:09:28.831Z,99177.41
2023-04-28T08:11:56.416Z,99181.97
2023-04-28T08:14:23.736Z,99186.94
2023-04-28T08:16:51.697Z,99186.09
2023-04-28T08:19:19.549Z,99181.28
2023-04-28T08:21:47.194Z,99188.22
2023-04-28T08:24:15.405Z,99188.88
2023-04-28T08:26:43.149Z,99192.69
2023-04-28T08:29:10.667Z,99182.72
2023-04-28T08:31:38.599Z,99177.53
2023-04-28T08:34:06.179Z,99188.34
2023-04-28T08:36:33.833Z,99175.66
2023-04-28T08:39:03.713Z,99169.50
2023-04-28T08:41:33.275Z,99181.94
2023-04-28T08:44:00.819Z,99165.22
2023-04-28T08:46:29.293Z,99165.31
2023-04-28T08:49:02.263Z,99167.22
2023-04-28T08:51:47.852Z,99187.22
2023-04-28T08:54:26.689Z,99175.19
2023-04-28T08:56:57.143Z,99171.81
2023-04-28T08:59:24.785Z,99177.69
2023-04-28T09:01:52.404Z,99184.50
2023-04-28T09:04:21.311Z,99177.38
2023-04-28T09:06:49.385Z,99165.75
2023-04-28T09:09:26.908Z,99169.47
2023-04-28T09:12:04.127Z,99165.81
2023-04-28T09:14:35.864Z,99156.97
2023-04-28T09:17:12.685Z,99133.91
2023-04-28T09:19:43.219Z,99133.84
2023-04-28T09:22:25.714Z,99133.72
2023-04-28T09:24:55.853Z,99129.16
2023-04-28T09:27:29.611Z,99122.50
2023-04-28T09:29:57.511Z,99125.91
2023-04-28T09:32:27.891Z,99125.09
2023-04-28T09:34:59.804Z,99119.16
2023-04-28T09:37:31.002Z,99132.03
2023-04-28T09:40:12.040Z,99125.69
2023-04-28T09:42:39.897Z,99123.78
2023-04-28T09:45:09.318Z,99126.25
2023-04-28T09:47:40.835Z,99121.16
2023-04-28T09:50:14.638Z,99103.16
2023-04-28T09:52:57.178Z,99108.00
2023-04-28T09:55:25.853Z,99097.31
2023-04-28T09:57:55.766Z,99098.91
2023-04-28T10:00:24.245Z,99104.84
2023-04-28T10:02:53.278Z,99115.19
2023-04-28T10:05:23.523Z,99112.13
2023-04-28T10:07:54.086Z,99098.56
2023-04-28T10:10:22.691Z,99087.47
2023-04-28T10:12:52.065Z,99085.84
2023-04-28T10:15:20.850Z,99076.28
2023-04-28T10:17:51.170Z,99071.41
2023-04-28T10:20:20.092Z,99069.03
2023-04-28T10:23:24.937Z,99065.31
2023-04-28T10:25:59.686Z,99062.03
2023-04-28T10:28:27.936Z,99071.19
2023-04-28T10:31:13.748Z,99050.94
2023-04-28T10:33:42.321Z,99052.47
2023-04-28T10:36:10.617Z,99052.56
2023-04-28T10:39:14.371Z,99059.19
2023-04-28T10:41:42.014Z,99053.22
2023-04-28T10:44:31.484Z,99052.47
2023-04-28T10:47:09.170Z,99039.16
2023-04-28T10:49:54.996Z,99028.94
2023-04-28T10:52:40.786Z,99039.06
2023-04-28T10:55:42.720Z,99043.47
2023-04-28T10:58:16.202Z,99045.94
2023-04-28T11:00:48.205Z,99038.81
2023-04-28T11:03:50.488Z,99015.97
2023-04-28T11:06:28.854Z,99009.06
2023-04-28T11:09:00.711Z,99005.72
2023-04-28T11:11:29.968Z,99011.78
2023-04-28T11:14:19.175Z,99018.31
2023-04-28T11:17:02.885Z,99011.38
2023-04-28T11:19:32.041Z,99002.13
2023-04-28T11:22:20.318Z,98999.38
2023-04-28T11:24:57.720Z,98995.75
2023-04-28T11:27:26.943Z,98986.56
2023-04-28T11:29:54.560Z,99002.81
2023-04-28T11:32:34.605Z,99009.56
2023-04-28T11:35:04.485Z,99015.78
2023-04-28T11:37:32.100Z,99013.59
2023-04-28T11:40:10.609Z,99008.59
2023-04-28T11:42:48.730Z,99005.22
2023-04-28T11:45:16.460Z,99003.09
2023-04-28T11:47:44.010Z,99007.31
2023-04-28T11:50:12.937Z,99002.31
2023-04-28T11:52:53.209Z,99006.06
2023-04-28T11:55:21.810Z,99010.56
2023-04-28T11:57:49.246Z,99007.72
2023-04-28T12:00:22.083Z,98990.16
2023-04-28T12:02:49.868Z,98991.00
2023-04-28T12:05:17.617Z,98989.91
2023-04-28T12:07:45.560Z,98989.13
2023-04-28T12:10:16.688Z,98977.00
2023-04-28T12:12:51.755Z,98974.00
2023-04-28T12:15:22.150Z,98969.28
2023-04-28T12:17:51.329Z,98977.69
2023-04-28T12:20:39.072Z,98966.28
2023-04-28T12:23:07.498Z,98963.47
2023-04-28T12:25:44.644Z,98961.06
2023-04-28T12:28:12.162Z,98955.28
2023-04-28T12:30:42.140Z,98946.81
2023-04-28T12:33:27.442Z,98954.25
2023-04-28T12:35:57.800Z,98946.16
2023-04-28T12:38:26.660Z,98928.47
2023-04-28T12:40:54.389Z,98930.50
2023-04-28T12:43:24.097Z,98929.84
2023-04-28T12:45:53.911Z,98921.16
2023-04-28T12:48:23.940Z,98926.78
2023-04-28T12:50:52.309Z,98917.56
2023-04-28T12:53:19.854Z,98908.59
2023-04-28T12:55:47.479Z,98905.78
2023-04-28T12:58:15.181Z,98905.38
2023-04-28T13:00:43.032Z,98918.06
2023-04-28T13:03:10.589Z,98907.28
2023-04-28T13:05:38.113Z,98905.22
2023-04-28T13:08:05.729Z,98898.97
2023-04-28T13:10:33.243Z,98890.19
2023-04-28T13:13:00.897Z,98878.66
2023-04-28T13:15:28.449Z,98874.53
2023-04-28T13:17:56.210Z,98876.41
2023-04-28T13:20:23.707Z,98885.59
2023-04-28T13:22:52.298Z,98869.75
2023-04-28T13:25:19.967Z,98867.72
2023-04-28T13:27:47.786Z,98868.06
2023-04-28T13:30:15.172Z,98868.50
2023-04-28T13:32:42.581Z,98864.91
2023-04-28T13:35:10.353Z,98846.78
2023-04-28T13:37:42.619Z,98856.59
2023-04-28T13:40:11.781Z,98848.69
2023-04-28T13:42:39.448Z,98838.13
2023-04-28T13:45:07.399Z,98832.47
2023-04-28T13:47:35.258Z,98843.47
2023-04-28T13:50:03.589Z,98836.97
2023-04-28T13:52:31.256Z,98827.84
2023-04-28T13:54:58.725Z,98814.63
2023-04-28T13:57:26.721Z,98807.47
2023-04-28T13:59:54.222Z,98815.75
2023-04-28T14:02:21.836Z,98810.19
2023-04-28T14:04:51.027Z,98807.25
2023-04-28T14:07:19.437Z,98808.75
2023-04-28T14:09:47.092Z,98811.38
2023-04-28T14:12:15.672Z,98797.31
2023-04-28T14:14:43.757Z,98802.75
2023-04-28T14:17:12.530Z,98793.25
2023-04-28T14:19:40.220Z,98799.25
2023-04-28T14:22:07.781Z,98803.53
2023-04-28T14:24:35.550Z,98796.22
2023-04-28T14:27:03.177Z,98795.03
2023-04-28T14:29:30.719Z,98783.66
2023-04-28T14:31:58.219Z,98785.97
2023-04-28T14:34:25.737Z,98777.78
2023-04-28T14:36:53.310Z,98770.75
2023-04-28T14:39:20.872Z,98767.19
2023-04-28T14:41:48.855Z,98782.75
2023-04-28T14:44:16.622Z,98780.97
2023-04-28T14:46:43.965Z,98776.50
2023-04-28T14:49:11.427Z,98769.72
2023-04-28T14:51:38.980Z,98775.69
2023-04-28T14:54:06.604Z,98770.22
2023-04-28T14:56:34.371Z,98761.84
2023-04-28T14:59:01.923Z,98763.78
2023-04-28T15:01:31.127Z,98771.56
2023-04-28T15:03:58.756Z,98769.50
2023-04-28T15:06:26.830Z,98768.78
2023-04-28T15:08:54.134Z,98763.94
2023-04-28T15:11:21.549Z,98764.66
2023-04-28T15:13:49.071Z,98769.13
2023-04-28T15:16:16.757Z,98764.16
2023-04-28T15:18:44.539Z,98769.25
2023-04-28T15:21:12.462Z,98766.50
2023-04-28T15:23:40.596Z,98773.81
2023-04-28T15:26:10.842Z,98770.34
2023-04-28T15:28:38.387Z,98763.94
2023-04-28T15:31:06.253Z,98751.59
2023-04-28T15:33:34.101Z,98755.88
2023-04-28T15:36:01.722Z,98754.06
2023-04-28T15:38:31.301Z,98764.25
2023-04-28T15:40:58.870Z,98761.91
2023-04-28T15:43:26.782Z,98761.56
2023-04-28T15:45:54.405Z,98756.66
2023-04-28T15:48:23.225Z,98759.28
2023-04-28T15:50:50.900Z,98756.44
2023-04-28T15:53:18.686Z,98756.28
2023-04-28T15:55:46.178Z,98751.03
2023-04-28T15:58:13.681Z,98742.84
2023-04-28T16:00:42.221Z,98742.53
2023-04-28T16:03:10.044Z,98733.72
2023-04-28T16:05:39.057Z,98731.25
2023-04-28T16:08:06.675Z,98734.31
2023-04-28T16:10:34.540Z,98745.75
2023-04-28T16:13:02.101Z,98739.00
2023-04-28T16:15:29.739Z,98735.56
2023-04-28T16:17:57.648Z,98726.19
2023-04-28T16:20:25.202Z,98725.34
2023-04-28T16:22:53.354Z,98722.34
2023-04-28T16:25:20.852Z,98710.56
2023-04-28T16:27:48.537Z,98721.84
2023-04-28T16:30:16.119Z,98715.50
2023-04-28T16:32:43.738Z,98709.81
2023-04-28T16:35:15.262Z,98720.53
2023-04-28T16:37:43.588Z,98705.69
2023-04-28T16:40:14.386Z,98711.06
2023-04-28T16:42:43.439Z,98714.78
2023-04-28T16:45:13.054Z,98713.28
2023-04-28T16:47:43.309Z,98705.41
2023-04-28T16:50:12.227Z,98706.03
2023-04-28T16:52:39.821Z,98705.47
2023-04-28T16:55:08.244Z,98695.16
2023-04-28T16:57:36.206Z,98700.00
2023-04-28T17:00:06.225Z,98702.25
2023-04-28T17:02:34.562Z,98711.16
2023-04-28T17:05:02.184Z,98706.13
2023-04-28T17:07:29.668Z,98709.75
2023-04-28T17:09:57.237Z,98700.25
2023-04-28T17:12:25.313Z,98700.84
2023-04-28T17:14:52.950Z,98700.00
2023-04-28T17:17:20.548Z,98698.19
2023-04-28T17:19:48.153Z,98695.75
2023-04-28T17:22:16.038Z,98695.44
2023-04-28T17:24:45.464Z,98702.09
2023-04-28T17:27:14.756Z,98700.66
2023-04-28T17:29:43.376Z,98697.78
2023-04-28T17:32:11.221Z,98697.50
2023-04-28T17:34:38.928Z,98694.06
2023-04-28T17:37:06.995Z,98702.72
2023-04-28T17:39:34.497Z,98696.63
2023-04-28T17:42:02.637Z,98697.41
2023-04-28T17:44:30.408Z,98700.19
2023-04-28T17:46:58.709Z,98702.44
2023-04-28T17:49:26.432Z,98694.53
2023-04-28T17:51:54.038Z,98702.78
2023-04-28T17:54:21.484Z,98700.09
2023-04-28T17:56:49.548Z,98696.84
2023-04-28T17:59:17.240Z,98695.63
2023-04-28T18:01:44.848Z,98697.63
2023-04-28T18:04:12.492Z,98692.75
2023-04-28T18:06:40.030Z,98694.91
2023-04-28T18:09:07.666Z,98685.00
2023-04-28T18:11:35.973Z,98692.63
2023-04-28T18:14:03.464Z,98687.19
2023-04-28T18:16:31.343Z,98677.06
2023-04-28T18:18:59.467Z,98680.69
2023-04-28T18:21:28.102Z,98685.94
2023-04-28T18:23:55.567Z,98683.66
2023-04-28T18:26:23.016Z,98686.69
2023-04-28T18:28:50.493Z,98682.63
2023-04-28T18:31:18.247Z,98686.44
2023-04-28T18:33:45.752Z,98690.09
2023-04-28T18:36:13.285Z,98690.09
2023-04-28T18:38:41.435Z,98691.69
2023-04-28T18:41:17.261Z,98695.94
2023-04-28T18:43:44.995Z,98690.69
2023-04-28T18:46:12.815Z,98693.69
2023-04-28T18:48:42.165Z,98697.69
2023-04-28T18:51:09.714Z,98697.47
2023-04-28T18:53:37.437Z,98697.81
2023-04-28T18:56:05.040Z,98703.72
2023-04-28T18:58:32.792Z,98695.63
2023-04-28T19:01:00.625Z,98703.09
2023-04-28T19:03:28.451Z,98703.91
2023-04-28T19:05:56.109Z,98702.69
2023-04-28T19:08:23.700Z,98704.50
2023-04-28T19:10:51.331Z,98694.84
2023-04-28T19:13:18.882Z,98710.56
2023-04-28T19:15:46.397Z,98710.72
2023-04-28T19:18:14.011Z,98708.44
2023-04-28T19:20:42.197Z,98699.91
2023-04-28T19:23:09.917Z,98692.59
2023-04-28T19:25:37.450Z,98691.63
2023-04-28T19:28:05.178Z,98689.81
2023-04-28T19:30:33.271Z,98679.47
2023-04-28T19:33:00.883Z,98674.44
2023-04-28T19:35:28.550Z,98664.34
2023-04-28T19:37:56.234Z,98666.97
2023-04-28T19:40:26.263Z,98674.75
2023-04-28T19:42:55.471Z,98670.56
2023-04-28T19:45:23.404Z,98674.13
2023-04-28T19:47:51.903Z,98670.63
2023-04-28T19:50:19.531Z,98683.56
2023-04-28T19:52:47.198Z,98671.38
2023-04-28T19:55:18.536Z,98670.84
2023-04-28T19:57:46.654Z,98661.19
2023-04-28T20:00:15.074Z,98672.31
2023-04-28T20:02:42.903Z,98671.94
2023-04-28T20:05:12.282Z,98669.56
2023-04-28T20:07:40.032Z,98667.41
2023-04-28T20:10:08.208Z,98669.22
2023-04-28T20:12:35.720Z,98664.97
2023-04-28T20:15:03.548Z,98672.66
2023-04-28T20:17:31.320Z,98665.25
2023-04-28T20:19:58.952Z,98668.69
2023-04-28T20:22:26.548Z,98651.97
2023-04-28T20:24:54.221Z,98658.53
2023-04-28T20:27:22.632Z,98662.78
2023-04-28T20:29:50.243Z,98661.47
2023-04-28T20:32:17.897Z,98663.06
2023-04-28T20:34:45.602Z,98657.47
2023-04-28T20:37:14.116Z,98656.88
2023-04-28T20:39:41.783Z,98655.16
2023-04-28T20:42:10.144Z,98652.72
2023-04-28T20:44:38.021Z,98654.53
2023-04-28T20:47:05.529Z,98649.09
2023-04-28T20:49:33.658Z,98650.72
2023-04-28T20:52:06.090Z,98645.47
2023-04-28T20:54:36.150Z,98643.06
2023-04-28T20:57:04.982Z,98645.88
2023-04-28T20:59:33.198Z,98644.06
2023-04-28T21:02:00.960Z,98647.50
2023-04-28T21:04:28.624Z,98645.94
2023-04-28T21:06:57.237Z,98644.75
2023-04-28T21:09:25.339Z,98644.13
2023-04-28T21:11:53.652Z,98646.94
2023-04-28T21:14:22.207Z,98635.00
2023-04-28T21:16:49.880Z,98638.19
2023-04-28T21:19:17.533Z,98627.63
2023-04-28T21:21:45.214Z,98635.53
2023-04-28T21:24:12.933Z,98629.13
2023-04-28T21:26:40.877Z,98631.75
2023-04-28T21:29:09.312Z,98633.16
2023-04-28T21:31:37.329Z,98631.56
2023-04-28T21:34:04.797Z,98635.28
2023-04-28T21:36:32.673Z,98633.47
2023-04-28T21:39:00.479Z,98634.03
2023-04-28T21:41:28.215Z,98633.41
2023-04-28T21:43:56.025Z,98635.00
2023-04-28T21:46:23.626Z,98634.59
2023-04-28T21:48:51.169Z,98631.88
2023-04-28T21:51:19.102Z,98623.88
2023-04-28T21:53:46.694Z,98627.22
2023-04-28T21:56:15.988Z,98627.03
2023-04-28T21:58:43.496Z,98622.00
2023-04-28T22:01:17.023Z,98620.81
2023-04-28T22:03:47.356Z,98614.97
2023-04-28T22:06:14.962Z,98619.94
2023-04-28T22:08:42.558Z,98622.41
2023-04-28T22:11:10.166Z,98614.38
2023-04-28T22:13:37.710Z,98609.03
2023-04-28T22:16:05.878Z,98611.28
2023-04-28T22:18:33.505Z,98607.41
2023-04-28T22:21:01.554Z,98605.50
2023-04-28T22:23:29.105Z,98603.28
2023-04-28T22:25:59.753Z,98594.44
2023-04-28T22:28:27.431Z,98594.16
2023-04-28T22:30:55.060Z,98605.00
2023-04-28T22:33:22.616Z,98587.66
2023-04-28T22:35:50.274Z,98587.06
2023-04-28T22:38:17.879Z,98590.28
2023-04-28T22:40:45.978Z,98581.91
2023-04-28T22:43:13.524Z,98583.97
2023-04-28T22:45:42.432Z,98575.94
2023-04-28T22:48:10.229Z,98576.59
2023-04-28T22:50:38.466Z,98569.38
2023-04-28T22:53:06.303Z,98574.06
2023-04-28T22:55:34.050Z,98563.59
2023-04-28T22:58:02.130Z,98551.44
2023-04-28T23:00:29.980Z,98550.25
2023-04-28T23:02:57.557Z,98561.50
2023-04-28T23:05:25.226Z,98553.41
2023-04-28T23:07:52.835Z,98554.41
2023-04-28T23:10:20.850Z,98549.44
2023-04-28T23:12:48.930Z,98540.09
2023-04-28T23:15:16.715Z,98527.38
2023-04-28T23:17:44.210Z,98529.81
2023-04-28T23:20:12.352Z,98525.59
2023-04-28T23:22:39.942Z,98527.19
2023-04-28T23:25:08.176Z,98519.34
2023-04-28T23:27:36.211Z,98516.94
2023-04-28T23:30:04.123Z,98508.81
2023-04-28T23:32:31.856Z,98505.22
2023-04-28T23:34:59.423Z,98506.47
2023-04-28T23:37:27.308Z,98505.84
2023-04-28T23:39:54.865Z,98487.34
2023-04-28T23:42:23.291Z,98498.63
2023-04-28T23:44:52.551Z,98502.59
2023-04-28T23:47:20.179Z,98499.16
2023-04-28T23:49:48.191Z,98498.00
2023-04-28T23:52:15.839Z,98484.28
2023-04-28T23:54:43.404Z,98487.09
2023-04-28T23:57:11.169Z,98478.63
2023-04-28T23:59:38.654Z,98473.41
